createdAt,value
2023-02-14T00:00:15.207Z,2.74
2023-02-14T00:00:46.700Z,2.78
2023-02-14T00:01:18.194Z,2.74
2023-02-14T00:01:50.036Z,2.78
2023-02-14T00:02:21.485Z,2.74
2023-02-14T00:03:06.598Z,2.73
2023-02-14T00:03:38.146Z,2.76
2023-02-14T00:04:09.726Z,2.72
2023-02-14T00:04:45.405Z,2.74
2023-02-14T00:05:16.920Z,2.69
2023-02-14T00:05:49.301Z,2.72
2023-02-14T00:06:20.833Z,2.69
2023-02-14T00:06:52.292Z,2.71
2023-02-14T00:07:23.836Z,2.73
2023-02-14T00:07:55.287Z,2.72
2023-02-14T00:08:26.833Z,2.68
2023-02-14T00:08:58.200Z,2.67
2023-02-14T00:09:29.676Z,2.67
2023-02-14T00:10:01.125Z,2.70
2023-02-14T00:10:32.739Z,2.67
2023-02-14T00:11:08.681Z,2.68
2023-02-14T00:11:40.403Z,2.67
2023-02-14T00:12:11.797Z,2.65
2023-02-14T00:12:43.142Z,2.63
2023-02-14T00:13:14.496Z,2.67
2023-02-14T00:14:05.118Z,2.67
2023-02-14T00:14:54.931Z,2.62
2023-02-14T00:15:26.414Z,2.64
2023-02-14T00:15:57.932Z,2.62
2023-02-14T00:16:29.477Z,2.64
2023-02-14T00:17:01.016Z,2.62
2023-02-14T00:17:32.434Z,2.60
2023-02-14T00:18:09.136Z,2.60
2023-02-14T00:19:15.967Z,2.58
2023-02-14T00:19:47.583Z,2.58
2023-02-14T00:20:19.154Z,2.57
2023-02-14T00:20:50.486Z,2.58
2023-02-14T00:21:22.395Z,2.55
2023-02-14T00:21:53.891Z,2.54
2023-02-14T00:22:25.540Z,2.53
2023-02-14T00:22:56.962Z,2.52
2023-02-14T00:23:28.298Z,2.52
2023-02-14T00:23:59.890Z,2.51
2023-02-14T00:24:31.338Z,2.51
2023-02-14T00:25:02.698Z,2.51
2023-02-14T00:25:34.569Z,2.47
2023-02-14T00:26:05.939Z,2.46
2023-02-14T00:26:38.582Z,2.47
2023-02-14T00:27:09.985Z,2.45
2023-02-14T00:27:41.462Z,2.43
2023-02-14T00:28:12.868Z,2.41
2023-02-14T00:28:44.995Z,2.41
2023-02-14T00:29:20.627Z,2.38
2023-02-14T00:29:52.186Z,2.42
2023-02-14T00:30:23.627Z,2.42
2023-02-14T00:30:57.999Z,2.45
2023-02-14T00:31:29.674Z,2.43
2023-02-14T00:32:01.632Z,2.41
2023-02-14T00:32:33.009Z,2.42
2023-02-14T00:33:04.478Z,2.37
2023-02-14T00:33:36.376Z,2.41
2023-02-14T00:34:08.975Z,2.37
2023-02-14T00:34:41.043Z,2.37
2023-02-14T00:35:12.470Z,2.38
2023-02-14T00:35:43.849Z,2.34
2023-02-14T00:36:17.868Z,2.35
2023-02-14T00:36:49.458Z,2.36
2023-02-14T00:37:21.338Z,2.37
2023-02-14T00:37:53.126Z,2.32
2023-02-14T00:38:24.810Z,2.33
2023-02-14T00:38:56.413Z,2.35
2023-02-14T00:39:27.887Z,2.36
2023-02-14T00:39:59.318Z,2.34
2023-02-14T00:40:30.783Z,2.35
2023-02-14T00:41:02.709Z,2.37
2023-02-14T00:41:34.498Z,2.36
2023-02-14T00:42:05.943Z,2.35
2023-02-14T00:42:37.321Z,2.34
2023-02-14T00:43:08.680Z,2.34
2023-02-14T00:43:40.309Z,2.33
2023-02-14T00:44:13.021Z,2.33
2023-02-14T00:44:44.533Z,2.28
2023-02-14T00:45:18.916Z,2.32
2023-02-14T00:45:50.471Z,2.29
2023-02-14T00:46:23.302Z,2.32
2023-02-14T00:46:54.872Z,2.29
2023-02-14T00:47:26.377Z,2.29
2023-02-14T00:47:59.647Z,2.26
2023-02-14T00:48:36.556Z,2.23
2023-02-14T00:49:08.492Z,2.26
2023-02-14T00:49:39.894Z,2.27
2023-02-14T00:50:11.387Z,2.23
2023-02-14T00:50:43.240Z,2.25
2023-02-14T00:51:15.426Z,2.24
2023-02-14T00:51:46.907Z,2.24
2023-02-14T00:52:18.439Z,2.24
2023-02-14T00:52:49.837Z,2.21
2023-02-14T00:53:21.263Z,2.20
2023-02-14T00:53:53.343Z,2.24
2023-02-14T00:54:24.870Z,2.20
2023-02-14T00:54:56.542Z,2.22
2023-02-14T00:55:27.920Z,2.23
2023-02-14T00:55:59.581Z,2.18
2023-02-14T00:56:31.935Z,2.19
2023-02-14T00:57:03.451Z,2.23
2023-02-14T00:57:35.466Z,2.21
2023-02-14T00:58:06.955Z,2.23
2023-02-14T00:58:38.472Z,2.20
2023-02-14T00:59:09.937Z,2.17
2023-02-14T00:59:41.430Z,2.18
2023-02-14T01:00:13.628Z,2.20
2023-02-14T01:00:45.082Z,2.16
2023-02-14T01:01:18.085Z,2.14
2023-02-14T01:01:49.641Z,2.19
2023-02-14T01:02:21.149Z,2.14
2023-02-14T01:02:52.754Z,2.18
2023-02-14T01:03:25.581Z,2.18
2023-02-14T01:03:58.794Z,2.18
2023-02-14T01:04:30.399Z,2.15
2023-02-14T01:05:01.930Z,2.14
2023-02-14T01:05:33.597Z,2.16
2023-02-14T01:06:06.174Z,2.16
2023-02-14T01:06:37.894Z,2.16
2023-02-14T01:07:09.351Z,2.13
2023-02-14T01:07:40.918Z,2.12
2023-02-14T01:08:12.478Z,2.12
2023-02-14T01:08:44.107Z,2.11
2023-02-14T01:09:15.784Z,2.12
2023-02-14T01:09:47.186Z,2.12
2023-02-14T01:10:18.767Z,2.07
2023-02-14T01:10:50.480Z,2.06
2023-02-14T01:11:23.546Z,2.10
2023-02-14T01:11:54.995Z,2.06
2023-02-14T01:12:26.476Z,2.08
2023-02-14T01:12:58.005Z,2.01
2023-02-14T01:13:29.519Z,2.03
2023-02-14T01:14:01.293Z,2.08
2023-02-14T01:14:36.041Z,2.08
2023-02-14T01:15:07.838Z,2.03
2023-02-14T01:15:41.637Z,2.04
2023-02-14T01:16:18.262Z,2.02
2023-02-14T01:16:49.895Z,2.03
2023-02-14T01:17:21.492Z,2.04
2023-02-14T01:17:52.980Z,1.97
2023-02-14T01:18:24.383Z,2.02
2023-02-14T01:19:01.466Z,2.02
2023-02-14T01:19:35.011Z,1.98
2023-02-14T01:20:07.540Z,1.98
2023-02-14T01:20:40.106Z,1.95
2023-02-14T01:21:29.307Z,1.95
2023-02-14T01:22:04.098Z,1.93
2023-02-14T01:22:37.240Z,1.96
2023-02-14T01:23:08.717Z,1.93
2023-02-14T01:23:40.841Z,1.93
2023-02-14T01:24:12.940Z,1.96
2023-02-14T01:24:44.398Z,1.94
2023-02-14T01:25:15.866Z,1.94
2023-02-14T01:25:47.945Z,1.94
2023-02-14T01:26:21.063Z,1.93
2023-02-14T01:26:52.421Z,1.88
2023-02-14T01:27:23.772Z,1.89
2023-02-14T01:27:55.375Z,1.87
2023-02-14T01:28:26.825Z,1.89
2023-02-14T01:28:58.556Z,1.89
2023-02-14T01:29:29.981Z,1.91
2023-02-14T01:30:01.481Z,1.90
2023-02-14T01:30:32.959Z,1.93
2023-02-14T01:31:15.068Z,1.92
2023-02-14T01:31:49.059Z,1.91
2023-02-14T01:32:20.663Z,1.91
2023-02-14T01:32:52.132Z,1.93
2023-02-14T01:33:23.588Z,1.93
2023-02-14T01:33:56.062Z,1.93
2023-02-14T01:34:27.502Z,1.92
2023-02-14T01:34:59.540Z,1.92
2023-02-14T01:35:30.874Z,1.91
2023-02-14T01:36:02.318Z,1.91
2023-02-14T01:36:37.825Z,1.89
2023-02-14T01:37:09.176Z,1.91
2023-02-14T01:37:40.749Z,1.91
2023-02-14T01:38:12.189Z,1.91
2023-02-14T01:38:43.655Z,1.91
2023-02-14T01:39:15.555Z,1.90
2023-02-14T01:39:46.943Z,1.89
2023-02-14T01:40:18.481Z,1.88
2023-02-14T01:40:49.953Z,1.90
2023-02-14T01:41:22.376Z,1.90
2023-02-14T01:41:55.938Z,1.85
2023-02-14T01:42:27.390Z,1.83
2023-02-14T01:42:58.782Z,1.87
2023-02-14T01:43:30.254Z,1.87
2023-02-14T01:44:05.444Z,1.87
2023-02-14T01:44:37.132Z,1.87
2023-02-14T01:45:25.978Z,1.85
2023-02-14T01:45:57.536Z,1.86
2023-02-14T01:46:35.150Z,1.87
2023-02-14T01:47:09.615Z,1.86
2023-02-14T01:47:43.490Z,1.84
2023-02-14T01:48:15.958Z,1.83
2023-02-14T01:48:48.773Z,1.85
2023-02-14T01:49:28.479Z,1.80
2023-02-14T01:50:07.087Z,1.82
2023-02-14T01:50:43.178Z,1.80
2023-02-14T01:51:18.818Z,1.81
2023-02-14T01:51:54.122Z,1.81
2023-02-14T01:52:32.902Z,1.79
2023-02-14T01:53:09.525Z,1.79
2023-02-14T01:53:41.148Z,1.74
2023-02-14T01:54:12.814Z,1.79
2023-02-14T01:54:54.752Z,1.79
2023-02-14T01:55:32.389Z,1.77
2023-02-14T01:56:09.896Z,1.73
2023-02-14T01:56:45.725Z,1.76
2023-02-14T01:57:21.060Z,1.74
2023-02-14T01:57:58.168Z,1.76
2023-02-14T01:58:34.929Z,1.70
2023-02-14T01:59:10.555Z,1.71
2023-02-14T01:59:49.016Z,1.71
2023-02-14T02:00:40.470Z,1.69
2023-02-14T02:01:13.818Z,1.70
2023-02-14T02:01:48.523Z,1.69
2023-02-14T02:02:23.717Z,1.70
2023-02-14T02:02:57.752Z,1.69
2023-02-14T02:03:34.477Z,1.66
2023-02-14T02:04:12.587Z,1.66
2023-02-14T02:04:46.713Z,1.66
2023-02-14T02:05:23.575Z,1.62
2023-02-14T02:06:03.263Z,1.64
2023-02-14T02:06:45.830Z,1.63
2023-02-14T02:07:20.984Z,1.62
2023-02-14T02:07:57.321Z,1.61
2023-02-14T02:08:29.088Z,1.60
2023-02-14T02:09:12.080Z,1.60
2023-02-14T02:10:02.788Z,1.56
2023-02-14T02:10:34.222Z,1.59
2023-02-14T02:11:05.898Z,1.59
2023-02-14T02:11:37.903Z,1.56
2023-02-14T02:12:09.515Z,1.58
2023-02-14T02:12:41.084Z,1.57
2023-02-14T02:13:19.122Z,1.56
2023-02-14T02:13:50.679Z,1.56
2023-02-14T02:14:22.777Z,1.53
2023-02-14T02:14:55.804Z,1.55
2023-02-14T02:15:29.755Z,1.52
2023-02-14T02:16:13.373Z,1.54
2023-02-14T02:16:56.661Z,1.54
2023-02-14T02:17:46.542Z,1.53
2023-02-14T02:18:27.118Z,1.53
2023-02-14T02:19:09.082Z,1.52
2023-02-14T02:20:11.006Z,1.53
2023-02-14T02:20:58.654Z,1.52
2023-02-14T02:21:57.484Z,1.51
2023-02-14T02:22:47.316Z,1.52
2023-02-14T02:23:43.546Z,1.52
2023-02-14T02:24:27.010Z,1.49
2023-02-14T02:25:32.145Z,1.49
2023-02-14T02:26:21.737Z,1.48
2023-02-14T02:27:04.952Z,1.48
2023-02-14T02:28:03.540Z,1.48
2023-02-14T02:29:15.743Z,1.46
2023-02-14T02:30:17.572Z,1.46
2023-02-14T02:30:51.676Z,1.46
2023-02-14T02:31:53.021Z,1.46
2023-02-14T02:32:47.278Z,1.46
2023-02-14T02:33:47.789Z,1.44
2023-02-14T02:34:34.105Z,1.44
2023-02-14T02:35:32.468Z,1.45
2023-02-14T02:36:17.188Z,1.42
2023-02-14T02:37:20.700Z,1.42
2023-02-14T02:38:10.438Z,1.41
2023-02-14T02:39:00.067Z,1.40
2023-02-14T02:39:40.305Z,1.39
2023-02-14T02:40:51.181Z,1.37
2023-02-14T02:41:46.032Z,1.39
2023-02-14T02:42:44.989Z,1.38
2023-02-14T02:43:44.758Z,1.38
2023-02-14T02:44:30.009Z,1.36
2023-02-14T02:45:19.747Z,1.36
2023-02-14T02:46:19.124Z,1.36
2023-02-14T02:47:31.758Z,1.35
2023-02-14T02:48:18.691Z,1.35
2023-02-14T02:49:52.346Z,1.34
2023-02-14T02:50:50.998Z,1.34
2023-02-14T02:56:03.851Z,1.28
2023-02-14T02:56:48.579Z,1.27
2023-02-14T02:57:29.586Z,1.26
2023-02-14T02:58:01.573Z,1.26
2023-02-14T02:58:42.767Z,1.26
2023-02-14T02:59:29.002Z,1.26
2023-02-14T03:00:04.103Z,1.26
2023-02-14T03:00:35.521Z,1.23
2023-02-14T03:01:11.351Z,1.25
2023-02-14T03:01:43.090Z,1.21
2023-02-14T03:02:20.123Z,1.22
2023-02-14T03:03:13.862Z,1.23
2023-02-14T03:04:06.993Z,1.22
2023-02-14T03:04:55.512Z,1.19
2023-02-14T03:05:29.233Z,1.19
2023-02-14T03:06:01.270Z,1.18
2023-02-14T03:06:33.050Z,1.18
2023-02-14T03:07:25.476Z,1.18
2023-02-14T03:07:56.859Z,1.16
2023-02-14T03:08:28.308Z,1.18
2023-02-14T03:09:32.729Z,1.15
2023-02-14T03:10:09.546Z,1.18
2023-02-14T03:10:41.081Z,1.16
2023-02-14T03:11:13.758Z,1.16
2023-02-14T03:12:00.738Z,1.15
2023-02-14T03:12:51.502Z,1.16
2023-02-14T03:13:40.914Z,1.18
2023-02-14T03:14:25.169Z,1.17
2023-02-14T03:15:02.533Z,1.17
2023-02-14T03:15:47.066Z,1.17
2023-02-14T03:16:41.156Z,1.17
2023-02-14T03:17:29.225Z,1.15
2023-02-14T03:18:34.523Z,1.16
2023-02-14T03:19:27.164Z,1.15
2023-02-14T03:20:16.970Z,1.13
2023-02-14T03:21:03.557Z,1.12
2023-02-14T03:21:48.486Z,1.12
2023-02-14T03:22:33.818Z,1.10
2023-02-14T03:23:20.350Z,1.11
2023-02-14T03:23:59.579Z,1.10
2023-02-14T03:24:50.264Z,1.11
2023-02-14T03:25:42.937Z,1.12
2023-02-14T03:26:21.466Z,1.11
2023-02-14T03:27:01.599Z,1.10
2023-02-14T03:27:41.138Z,1.08
2023-02-14T03:28:24.178Z,1.08
2023-02-14T03:29:06.067Z,1.10
2023-02-14T03:29:58.607Z,1.10
2023-02-14T03:30:44.817Z,1.09
2023-02-14T03:31:22.718Z,1.11
2023-02-14T03:32:22.781Z,1.11
2023-02-14T03:33:11.316Z,1.11
2023-02-14T03:34:05.016Z,1.11
2023-02-14T03:35:00.103Z,1.12
2023-02-14T03:35:42.076Z,1.11
2023-02-14T03:36:19.110Z,1.11
2023-02-14T03:36:56.347Z,1.11
2023-02-14T03:37:41.664Z,1.08
2023-02-14T03:38:26.832Z,1.09
2023-02-14T03:39:08.722Z,1.10
2023-02-14T03:39:52.191Z,1.07
2023-02-14T03:40:23.544Z,1.11
2023-02-14T03:40:59.519Z,1.10
2023-02-14T03:41:38.211Z,1.09
2023-02-14T03:42:21.233Z,1.07
2023-02-14T03:42:57.639Z,1.09
2023-02-14T03:43:34.114Z,1.08
2023-02-14T03:44:11.203Z,1.07
2023-02-14T03:44:44.163Z,1.07
2023-02-14T03:45:25.051Z,1.07
2023-02-14T03:46:08.921Z,1.07
2023-02-14T03:46:45.346Z,1.07
2023-02-14T03:47:20.596Z,1.08
2023-02-14T03:47:54.964Z,1.07
2023-02-14T03:48:28.888Z,1.04
2023-02-14T03:49:06.024Z,1.06
2023-02-14T03:49:48.930Z,1.06
2023-02-14T03:50:20.564Z,1.04
2023-02-14T03:50:53.783Z,1.03
2023-02-14T03:51:27.351Z,1.03
2023-02-14T03:52:02.518Z,1.01
2023-02-14T03:52:36.019Z,0.98
2023-02-14T03:53:10.742Z,1.00
2023-02-14T03:53:47.012Z,1.04
2023-02-14T03:54:20.923Z,1.00
2023-02-14T03:54:56.648Z,1.01
2023-02-14T03:55:36.093Z,1.03
2023-02-14T03:56:16.342Z,1.06
2023-02-14T03:57:01.199Z,1.06
2023-02-14T03:57:43.054Z,1.03
2023-02-14T03:58:32.668Z,1.07
2023-02-14T03:59:12.851Z,1.04
2023-02-14T03:59:44.608Z,1.04
2023-02-14T04:00:18.342Z,1.06
2023-02-14T04:00:57.736Z,1.04
2023-02-14T04:01:45.814Z,1.05
2023-02-14T04:02:24.484Z,1.06
2023-02-14T04:03:03.148Z,1.06
2023-02-14T04:03:39.210Z,1.04
2023-02-14T04:04:13.893Z,1.06
2023-02-14T04:04:47.902Z,1.07
2023-02-14T04:05:25.987Z,1.05
2023-02-14T04:05:58.120Z,1.04
2023-02-14T04:06:29.541Z,1.04
2023-02-14T04:07:16.105Z,1.05
2023-02-14T04:07:56.591Z,1.03
2023-02-14T04:08:29.513Z,1.03
2023-02-14T04:09:01.030Z,1.03
2023-02-14T04:09:32.445Z,1.00
2023-02-14T04:10:03.905Z,1.03
2023-02-14T04:10:35.851Z,1.02
2023-02-14T04:11:07.700Z,0.99
2023-02-14T04:11:39.473Z,1.00
2023-02-14T04:12:11.700Z,0.97
2023-02-14T04:12:43.271Z,0.99
2023-02-14T04:13:14.636Z,0.98
2023-02-14T04:13:46.058Z,0.97
2023-02-14T04:14:17.824Z,0.95
2023-02-14T04:14:49.244Z,0.97
2023-02-14T04:15:20.819Z,0.93
2023-02-14T04:15:52.316Z,0.94
2023-02-14T04:16:23.861Z,0.96
2023-02-14T04:17:13.881Z,0.91
2023-02-14T04:18:03.880Z,0.96
2023-02-14T04:18:53.887Z,0.95
2023-02-14T04:19:25.459Z,0.96
2023-02-14T04:19:56.793Z,0.94
2023-02-14T04:20:28.859Z,0.94
2023-02-14T04:21:00.723Z,0.94
2023-02-14T04:21:32.339Z,0.93
2023-02-14T04:22:03.789Z,0.93
2023-02-14T04:22:35.188Z,0.89
2023-02-14T04:23:06.719Z,0.92
2023-02-14T04:23:38.500Z,0.91
2023-02-14T04:24:09.903Z,0.94
2023-02-14T04:24:42.318Z,0.89
2023-02-14T04:25:14.634Z,0.92
2023-02-14T04:25:46.319Z,0.93
2023-02-14T04:26:17.636Z,0.91
2023-02-14T04:27:09.298Z,0.90
2023-02-14T04:27:40.743Z,0.92
2023-02-14T04:28:12.961Z,0.92
2023-02-14T04:28:44.428Z,0.93
2023-02-14T04:29:15.771Z,0.92
2023-02-14T04:29:49.091Z,0.92
2023-02-14T04:30:22.733Z,0.90
2023-02-14T04:30:54.161Z,0.91
2023-02-14T04:31:25.757Z,0.90
2023-02-14T04:31:57.248Z,0.90
2023-02-14T04:32:28.808Z,0.88
2023-02-14T04:33:00.209Z,0.89
2023-02-14T04:33:31.851Z,0.89
2023-02-14T04:34:03.266Z,0.87
2023-02-14T04:34:34.982Z,0.84
2023-02-14T04:35:06.744Z,0.86
2023-02-14T04:35:38.366Z,0.82
2023-02-14T04:36:09.821Z,0.87
2023-02-14T04:36:41.336Z,0.83
2023-02-14T04:37:15.128Z,0.86
2023-02-14T04:37:46.612Z,0.84
2023-02-14T04:38:18.005Z,0.82
2023-02-14T04:38:49.492Z,0.82
2023-02-14T04:39:20.916Z,0.79
2023-02-14T04:39:52.330Z,0.79
2023-02-14T04:40:23.735Z,0.85
2023-02-14T04:40:55.300Z,0.85
2023-02-14T04:41:28.922Z,0.82
2023-02-14T04:42:00.589Z,0.78
2023-02-14T04:42:31.987Z,0.82
2023-02-14T04:43:04.648Z,0.81
2023-02-14T04:43:36.062Z,0.80
2023-02-14T04:44:07.463Z,0.80
2023-02-14T04:44:38.881Z,0.81
2023-02-14T04:45:10.310Z,0.80
2023-02-14T04:45:41.795Z,0.77
2023-02-14T04:46:13.367Z,0.76
2023-02-14T04:46:45.007Z,0.77
2023-02-14T04:47:16.432Z,0.76
2023-02-14T04:47:47.997Z,0.79
2023-02-14T04:48:19.360Z,0.76
2023-02-14T04:48:50.788Z,0.77
2023-02-14T04:49:22.434Z,0.73
2023-02-14T04:49:54.012Z,0.76
2023-02-14T04:50:26.690Z,0.75
2023-02-14T04:50:58.472Z,0.76
2023-02-14T04:51:30.196Z,0.71
2023-02-14T04:52:01.947Z,0.71
2023-02-14T04:52:33.423Z,0.74
2023-02-14T04:53:05.003Z,0.69
2023-02-14T04:53:40.401Z,0.69
2023-02-14T04:54:12.031Z,0.73
2023-02-14T04:54:43.475Z,0.72
2023-02-14T04:55:14.899Z,0.69
2023-02-14T04:55:49.219Z,0.69
2023-02-14T04:56:20.655Z,0.66
2023-02-14T04:56:52.184Z,0.64
2023-02-14T04:57:23.668Z,0.65
2023-02-14T04:57:55.240Z,0.64
2023-02-14T04:58:26.673Z,0.64
2023-02-14T04:58:58.201Z,0.63
2023-02-14T04:59:29.786Z,0.68
2023-02-14T05:00:01.556Z,0.65
2023-02-14T05:00:33.028Z,0.65
2023-02-14T05:01:04.508Z,0.62
2023-02-14T05:01:36.073Z,0.62
2023-02-14T05:02:07.612Z,0.64
2023-02-14T05:02:39.168Z,0.60
2023-02-14T05:03:13.006Z,0.63
2023-02-14T05:03:44.359Z,0.63
2023-02-14T05:04:15.836Z,0.64
2023-02-14T05:04:49.684Z,0.60
2023-02-14T05:05:21.259Z,0.64
2023-02-14T05:05:52.925Z,0.63
2023-02-14T05:06:24.342Z,0.64
2023-02-14T05:06:55.717Z,0.63
2023-02-14T05:07:27.974Z,0.61
2023-02-14T05:07:59.431Z,0.61
2023-02-14T05:08:30.822Z,0.61
2023-02-14T05:09:03.367Z,0.62
2023-02-14T05:09:34.930Z,0.60
2023-02-14T05:10:06.802Z,0.61
2023-02-14T05:10:38.197Z,0.58
2023-02-14T05:11:09.968Z,0.60
2023-02-14T05:11:41.464Z,0.58
2023-02-14T05:12:12.988Z,0.60
2023-02-14T05:12:44.517Z,0.61
2023-02-14T05:13:17.513Z,0.60
2023-02-14T05:13:49.046Z,0.60
2023-02-14T05:14:20.686Z,0.60
2023-02-14T05:14:52.033Z,0.59
2023-02-14T05:15:23.440Z,0.58
2023-02-14T05:15:55.262Z,0.56
2023-02-14T05:16:26.740Z,0.55
2023-02-14T05:16:58.113Z,0.56
2023-02-14T05:17:29.608Z,0.58
2023-02-14T05:18:02.807Z,0.56
2023-02-14T05:18:34.497Z,0.56
2023-02-14T05:19:05.888Z,0.54
2023-02-14T05:19:37.250Z,0.53
2023-02-14T05:20:09.124Z,0.52
2023-02-14T05:20:40.701Z,0.49
2023-02-14T05:21:12.379Z,0.51
2023-02-14T05:21:43.885Z,0.53
2023-02-14T05:22:18.175Z,0.48
2023-02-14T05:22:49.876Z,0.49
2023-02-14T05:23:21.884Z,0.51
2023-02-14T05:23:53.266Z,0.50
2023-02-14T05:24:24.961Z,0.51
2023-02-14T05:24:56.404Z,0.48
2023-02-14T05:25:27.758Z,0.48
2023-02-14T05:25:59.138Z,0.50
2023-02-14T05:26:31.063Z,0.47
2023-02-14T05:27:02.457Z,0.48
2023-02-14T05:27:33.875Z,0.48
2023-02-14T05:28:05.776Z,0.43
2023-02-14T05:28:37.406Z,0.47
2023-02-14T05:29:08.870Z,0.43
2023-02-14T05:29:40.266Z,0.46
2023-02-14T05:30:13.506Z,0.42
2023-02-14T05:30:45.004Z,0.41
2023-02-14T05:31:16.585Z,0.42
2023-02-14T05:31:48.418Z,0.42
2023-02-14T05:32:19.845Z,0.44
2023-02-14T05:32:51.325Z,0.42
2023-02-14T05:33:23.106Z,0.42
2023-02-14T05:33:54.537Z,0.43
2023-02-14T05:34:25.908Z,0.43
2023-02-14T05:34:57.265Z,0.41
2023-02-14T05:35:28.760Z,0.39
2023-02-14T05:36:02.941Z,0.41
2023-02-14T05:36:34.334Z,0.42
2023-02-14T05:37:05.832Z,0.36
2023-02-14T05:37:37.227Z,0.38
2023-02-14T05:38:08.806Z,0.42
2023-02-14T05:38:40.195Z,0.42
2023-02-14T05:39:14.507Z,0.39
2023-02-14T05:39:45.935Z,0.39
2023-02-14T05:40:17.424Z,0.37
2023-02-14T05:40:48.856Z,0.36
2023-02-14T05:41:20.303Z,0.38
2023-02-14T05:41:51.731Z,0.37
2023-02-14T05:42:23.062Z,0.38
2023-02-14T05:42:55.902Z,0.39
2023-02-14T05:43:27.386Z,0.36
2023-02-14T05:43:58.727Z,0.38
2023-02-14T05:44:30.098Z,0.38
2023-02-14T05:45:01.441Z,0.37
2023-02-14T05:45:32.821Z,0.35
2023-02-14T05:46:04.493Z,0.36
2023-02-14T05:46:35.914Z,0.36
2023-02-14T05:47:07.330Z,0.33
2023-02-14T05:47:39.113Z,0.37
2023-02-14T05:48:10.537Z,0.36
2023-02-14T05:48:42.031Z,0.36
2023-02-14T05:49:13.495Z,0.32
2023-02-14T05:49:44.958Z,0.36
2023-02-14T05:50:17.569Z,0.33
2023-02-14T05:50:48.986Z,0.34
2023-02-14T05:51:20.499Z,0.33
2023-02-14T05:51:53.033Z,0.32
2023-02-14T05:52:24.700Z,0.33
2023-02-14T05:52:56.399Z,0.33
2023-02-14T05:53:27.787Z,0.33
2023-02-14T05:54:01.084Z,0.33
2023-02-14T05:54:32.508Z,0.32
2023-02-14T05:55:04.844Z,0.28
2023-02-14T05:55:36.299Z,0.33
2023-02-14T05:56:08.239Z,0.28
2023-02-14T05:56:39.674Z,0.32
2023-02-14T05:57:11.025Z,0.29
2023-02-14T05:57:42.736Z,0.31
2023-02-14T05:58:14.258Z,0.30
2023-02-14T05:58:45.801Z,0.29
2023-02-14T05:59:17.182Z,0.28
2023-02-14T05:59:48.896Z,0.27
2023-02-14T06:00:21.057Z,0.29
2023-02-14T06:00:52.584Z,0.27
2023-02-14T06:01:23.955Z,0.28
2023-02-14T06:01:55.417Z,0.27
2023-02-14T06:02:27.054Z,0.28
2023-02-14T06:02:58.482Z,0.29
2023-02-14T06:03:29.853Z,0.25
2023-02-14T06:04:01.498Z,0.28
2023-02-14T06:04:33.025Z,0.26
2023-02-14T06:05:04.855Z,0.28
2023-02-14T06:05:36.325Z,0.26
2023-02-14T06:06:07.722Z,0.27
2023-02-14T06:06:39.060Z,0.26
2023-02-14T06:07:10.546Z,0.27
2023-02-14T06:07:43.531Z,0.26
2023-02-14T06:08:15.142Z,0.26
2023-02-14T06:08:46.477Z,0.26
2023-02-14T06:09:19.713Z,0.26
2023-02-14T06:09:51.228Z,0.24
2023-02-14T06:10:25.230Z,0.25
2023-02-14T06:10:56.583Z,0.23
2023-02-14T06:11:28.171Z,0.22
2023-02-14T06:11:59.582Z,0.20
2023-02-14T06:12:30.989Z,0.23
2023-02-14T06:13:02.477Z,0.23
2023-02-14T06:13:33.902Z,0.22
2023-02-14T06:14:05.505Z,0.24
2023-02-14T06:14:37.026Z,0.23
2023-02-14T06:15:08.566Z,0.24
2023-02-14T06:15:39.970Z,0.21
2023-02-14T06:16:11.428Z,0.24
2023-02-14T06:16:42.820Z,0.23
2023-02-14T06:17:14.302Z,0.19
2023-02-14T06:17:47.975Z,0.20
2023-02-14T06:18:19.325Z,0.20
2023-02-14T06:18:50.657Z,0.21
2023-02-14T06:19:22.039Z,0.18
2023-02-14T06:19:53.411Z,0.20
2023-02-14T06:20:25.316Z,0.21
2023-02-14T06:20:57.449Z,0.21
2023-02-14T06:21:29.075Z,0.22
2023-02-14T06:22:00.500Z,0.19
2023-02-14T06:22:32.037Z,0.21
2023-02-14T06:23:03.412Z,0.19
2023-02-14T06:23:34.915Z,0.20
2023-02-14T06:24:06.436Z,0.18
2023-02-14T06:24:38.021Z,0.21
2023-02-14T06:25:09.435Z,0.20
2023-02-14T06:25:40.941Z,0.21
2023-02-14T06:26:12.625Z,0.16
2023-02-14T06:26:44.090Z,0.21
2023-02-14T06:27:15.635Z,0.20
2023-02-14T06:27:49.261Z,0.20
2023-02-14T06:28:20.913Z,0.20
2023-02-14T06:28:56.802Z,0.21
2023-02-14T06:29:28.371Z,0.20
2023-02-14T06:29:59.875Z,0.19
2023-02-14T06:30:31.413Z,0.17
2023-02-14T06:31:03.298Z,0.18
2023-02-14T06:31:35.166Z,0.19
2023-02-14T06:32:06.927Z,0.17
2023-02-14T06:32:38.835Z,0.18
2023-02-14T06:33:10.171Z,0.17
2023-02-14T06:33:41.722Z,0.16
2023-02-14T06:34:14.810Z,0.17
2023-02-14T06:34:47.330Z,0.14
2023-02-14T06:35:18.960Z,0.16
2023-02-14T06:35:50.339Z,0.14
2023-02-14T06:36:22.701Z,0.15
2023-02-14T06:36:54.056Z,0.14
2023-02-14T06:37:25.527Z,0.13
2023-02-14T06:37:56.951Z,0.11
2023-02-14T06:38:28.304Z,0.15
2023-02-14T06:38:59.679Z,0.13
2023-02-14T06:39:31.105Z,0.10
2023-02-14T06:40:02.456Z,0.12
2023-02-14T06:40:33.892Z,0.10
2023-02-14T06:41:07.448Z,0.12
2023-02-14T06:41:39.055Z,0.12
2023-02-14T06:42:10.602Z,0.08
2023-02-14T06:42:42.115Z,0.08
2023-02-14T06:43:13.555Z,0.10
2023-02-14T06:43:48.724Z,0.11
2023-02-14T06:44:20.211Z,0.10
2023-02-14T06:44:51.675Z,0.11
2023-02-14T06:45:23.054Z,0.11
2023-02-14T06:45:54.664Z,0.11
2023-02-14T06:46:26.103Z,0.11
2023-02-14T06:46:57.637Z,0.11
2023-02-14T06:47:29.173Z,0.10
2023-02-14T06:48:00.521Z,0.08
2023-02-14T06:48:31.939Z,0.11
2023-02-14T06:49:03.347Z,0.11
2023-02-14T06:49:34.720Z,0.07
2023-02-14T06:50:06.914Z,0.06
2023-02-14T06:50:38.309Z,0.08
2023-02-14T06:51:09.915Z,0.07
2023-02-14T06:51:41.322Z,0.05
2023-02-14T06:52:12.661Z,0.08
2023-02-14T06:52:44.448Z,0.09
2023-02-14T06:53:15.905Z,0.09
2023-02-14T06:53:47.266Z,0.06
2023-02-14T06:54:18.780Z,0.07
2023-02-14T06:54:50.150Z,0.07
2023-02-14T06:55:21.586Z,0.08
2023-02-14T06:55:53.398Z,0.09
2023-02-14T06:56:24.845Z,0.08
2023-02-14T06:56:56.289Z,0.02
2023-02-14T06:57:27.855Z,0.05
2023-02-14T06:57:59.294Z,0.06
2023-02-14T06:58:31.272Z,0.07
2023-02-14T06:59:03.029Z,0.06
2023-02-14T06:59:34.478Z,0.06
2023-02-14T07:00:07.078Z,0.05
2023-02-14T07:00:39.676Z,0.06
2023-02-14T07:01:11.115Z,0.06
2023-02-14T07:01:42.547Z,0.02
2023-02-14T07:02:14.072Z,0.04
2023-02-14T07:02:45.764Z,0.03
2023-02-14T07:03:17.734Z,0.04
2023-02-14T07:03:49.129Z,0.05
2023-02-14T07:04:20.578Z,0.05
2023-02-14T07:04:51.977Z,0.05
2023-02-14T07:05:23.375Z,0.06
2023-02-14T07:05:55.237Z,0.03
2023-02-14T07:06:26.632Z,0.02
2023-02-14T07:06:58.926Z,0.05
2023-02-14T07:07:30.501Z,0.01
2023-02-14T07:08:02.142Z,0.05
2023-02-14T07:08:33.813Z,0.05
2023-02-14T07:09:05.618Z,0.02
2023-02-14T07:09:37.114Z,0.05
2023-02-14T07:10:08.759Z,0.03
2023-02-14T07:10:40.155Z,0.03
2023-02-14T07:11:11.559Z,0.05
2023-02-14T07:11:43.615Z,0.06
2023-02-14T07:12:15.047Z,0.05
2023-02-14T07:12:46.439Z,0.05
2023-02-14T07:13:18.049Z,0.05
2023-02-14T07:13:49.680Z,0.04
2023-02-14T07:14:21.135Z,0.02
2023-02-14T07:14:52.506Z,0.07
2023-02-14T07:15:23.918Z,0.03
2023-02-14T07:15:55.450Z,0.06
2023-02-14T07:16:26.849Z,0.04
2023-02-14T07:16:58.416Z,0.04
2023-02-14T07:17:29.800Z,0.07
2023-02-14T07:18:01.285Z,0.03
2023-02-14T07:18:32.719Z,0.06
2023-02-14T07:19:04.354Z,0.08
2023-02-14T07:19:35.798Z,0.04
2023-02-14T07:20:09.254Z,0.08
2023-02-14T07:20:40.578Z,0.09
2023-02-14T07:21:11.972Z,0.09
2023-02-14T07:21:43.296Z,0.07
2023-02-14T07:22:14.643Z,0.08
2023-02-14T07:22:46.198Z,0.08
2023-02-14T07:23:17.877Z,0.06
2023-02-14T07:23:50.133Z,0.07
2023-02-14T07:24:21.537Z,0.06
2023-02-14T07:24:53.000Z,0.06
2023-02-14T07:25:24.491Z,0.10
2023-02-14T07:25:56.303Z,0.11
2023-02-14T07:26:27.738Z,0.10
2023-02-14T07:26:59.184Z,0.11
2023-02-14T07:27:30.589Z,0.12
2023-02-14T07:28:02.209Z,0.12
2023-02-14T07:28:33.702Z,0.10
2023-02-14T07:29:05.191Z,0.13
2023-02-14T07:29:37.401Z,0.13
2023-02-14T07:30:11.006Z,0.13
2023-02-14T07:30:42.478Z,0.12
2023-02-14T07:31:14.055Z,0.14
2023-02-14T07:31:45.707Z,0.13
2023-02-14T07:32:17.324Z,0.15
2023-02-14T07:32:48.761Z,0.15
2023-02-14T07:33:20.148Z,0.14
2023-02-14T07:33:52.587Z,0.16
2023-02-14T07:34:26.570Z,0.12
2023-02-14T07:34:59.554Z,0.16
2023-02-14T07:35:35.269Z,0.14
2023-02-14T07:36:08.079Z,0.17
2023-02-14T07:36:39.651Z,0.12
2023-02-14T07:37:13.399Z,0.16
2023-02-14T07:37:46.837Z,0.13
2023-02-14T07:38:20.031Z,0.17
2023-02-14T07:38:52.685Z,0.18
2023-02-14T07:39:26.052Z,0.13
2023-02-14T07:40:00.743Z,0.14
2023-02-14T07:40:36.409Z,0.17
2023-02-14T07:41:07.888Z,0.21
2023-02-14T07:41:41.972Z,0.23
2023-02-14T07:42:23.990Z,0.19
2023-02-14T07:43:04.845Z,0.23
2023-02-14T07:44:00.120Z,0.20
2023-02-14T07:44:45.095Z,0.20
2023-02-14T07:45:22.298Z,0.22
2023-02-14T07:45:58.280Z,0.20
2023-02-14T07:46:33.901Z,0.23
2023-02-14T07:47:11.545Z,0.23
2023-02-14T07:47:46.842Z,0.27